createdAt,value
2022-08-17T00:01:29.663Z,21.15
2022-08-17T00:03:58.383Z,21.19
2022-08-17T00:06:28.039Z,21.24
2022-08-17T00:08:55.932Z,21.13
2022-08-17T00:11:30.249Z,21.16
2022-08-17T00:14:00.312Z,20.95
2022-08-17T00:16:50.478Z,20.86
2022-08-17T00:19:23.123Z,20.77
2022-08-17T00:22:31.782Z,20.81
2022-08-17T00:24:39.003Z,20.88
2022-08-17T00:27:05.760Z,20.80
2022-08-17T00:29:32.488Z,20.74
2022-08-17T00:31:59.188Z,20.66
2022-08-17T00:34:28.443Z,20.58
2022-08-17T00:36:58.577Z,20.59
2022-08-17T00:39:25.395Z,20.62
2022-08-17T00:41:52.151Z,20.66
2022-08-17T00:44:19.978Z,20.63
2022-08-17T00:46:48.025Z,20.59
2022-08-17T00:49:15.865Z,20.62
2022-08-17T00:52:10.787Z,20.60
2022-08-17T00:54:41.674Z,20.57
2022-08-17T00:57:10.569Z,20.30
2022-08-17T00:59:40.415Z,20.36
2022-08-17T01:02:09.654Z,20.43
2022-08-17T01:04:36.508Z,20.47
2022-08-17T01:07:04.614Z,20.42
2022-08-17T01:09:31.601Z,20.31
2022-08-17T01:11:58.385Z,20.40
2022-08-17T01:14:25.716Z,20.42
2022-08-17T01:16:55.291Z,20.38
2022-08-17T01:19:26.423Z,20.32
2022-08-17T01:22:11.467Z,20.41
2022-08-17T01:24:41.834Z,20.36
2022-08-17T01:27:10.643Z,20.38
2022-08-17T01:29:38.951Z,20.49
2022-08-17T01:32:07.156Z,20.47
2022-08-17T01:34:43.350Z,20.31
2022-08-17T01:37:13.250Z,20.16
2022-08-17T01:39:52.151Z,20.07
2022-08-17T01:42:44.504Z,20.12
2022-08-17T01:45:25.124Z,19.99
2022-08-17T01:47:51.977Z,19.82
2022-08-17T01:50:25.133Z,19.88
2022-08-17T01:52:57.326Z,19.97
2022-08-17T01:55:29.021Z,19.94
2022-08-17T01:57:55.913Z,20.05
2022-08-17T02:00:22.688Z,19.92
2022-08-17T02:02:49.637Z,19.83
2022-08-17T02:05:16.631Z,19.88
2022-08-17T02:07:56.027Z,19.85
2022-08-17T02:10:33.726Z,19.92
2022-08-17T02:13:02.481Z,19.93
2022-08-17T02:15:29.312Z,19.92
2022-08-17T02:17:56.007Z,20.06
2022-08-17T02:20:42.205Z,20.10
2022-08-17T02:23:12.022Z,20.06
2022-08-17T02:25:39.445Z,20.03
2022-08-17T02:28:06.192Z,19.97
2022-08-17T02:31:00.094Z,19.84
2022-08-17T02:33:20.586Z,19.67
2022-08-17T02:35:48.663Z,19.62
2022-08-17T02:38:15.442Z,19.55
2022-08-17T02:40:42.146Z,19.54
2022-08-17T02:43:13.852Z,19.57
2022-08-17T02:45:40.564Z,19.45
2022-08-17T02:48:07.525Z,19.38
2022-08-17T02:50:34.550Z,19.30
2022-08-17T02:53:02.553Z,19.21
2022-08-17T02:55:37.693Z,19.31
2022-08-17T02:58:05.151Z,19.50
2022-08-17T03:00:35.069Z,19.57
2022-08-17T03:03:03.758Z,19.52
2022-08-17T03:05:32.345Z,19.37
2022-08-17T03:07:59.455Z,19.40
2022-08-17T03:10:26.670Z,19.27
2022-08-17T03:12:53.797Z,19.17
2022-08-17T03:15:23.687Z,19.10
2022-08-17T03:17:52.181Z,19.14
2022-08-17T03:20:20.702Z,19.11
2022-08-17T03:22:53.499Z,19.14
2022-08-17T03:25:35.784Z,19.11
2022-08-17T03:28:04.728Z,19.11
2022-08-17T03:30:32.459Z,19.13
2022-08-17T03:33:00.732Z,19.12
2022-08-17T03:35:31.558Z,18.96
2022-08-17T03:38:01.107Z,19.10
2022-08-17T03:40:55.545Z,19.03
2022-08-17T03:43:15.989Z,19.03
2022-08-17T03:46:01.494Z,19.05
2022-08-17T03:48:47.084Z,19.13
2022-08-17T03:54:53.371Z,19.05
2022-08-17T03:57:22.585Z,19.09
2022-08-17T03:59:49.746Z,19.15
2022-08-17T04:02:20.833Z,19.25
2022-08-17T04:04:50.991Z,19.29
2022-08-17T04:07:19.556Z,19.39
2022-08-17T04:09:46.337Z,19.40
2022-08-17T04:12:15.951Z,19.34
2022-08-17T04:14:53.426Z,19.42
2022-08-17T04:17:27.592Z,19.37
2022-08-17T04:19:54.934Z,19.38
2022-08-17T04:22:32.401Z,19.34
2022-08-17T04:25:10.278Z,19.30
2022-08-17T04:27:46.548Z,19.31
2022-08-17T04:30:45.513Z,19.29
2022-08-17T04:33:14.337Z,19.31
2022-08-17T04:35:44.705Z,19.36
2022-08-17T04:38:14.906Z,19.42
2022-08-17T04:41:00.856Z,19.38
2022-08-17T04:43:28.890Z,19.40
2022-08-17T04:46:00.835Z,19.58
2022-08-17T04:48:36.706Z,19.62
2022-08-17T04:51:07.621Z,19.78
2022-08-17T04:53:34.509Z,19.90
2022-08-17T04:56:01.419Z,19.90
2022-08-17T04:58:28.329Z,19.91
2022-08-17T05:00:55.138Z,20.00
2022-08-17T05:03:21.860Z,20.07
2022-08-17T05:05:49.993Z,20.16
2022-08-17T05:08:18.787Z,20.21
2022-08-17T05:10:46.950Z,20.29
2022-08-17T05:13:38.919Z,20.37
2022-08-17T05:16:06.096Z,20.40
2022-08-17T05:18:37.388Z,20.51
2022-08-17T05:21:04.762Z,20.58
2022-08-17T05:23:43.087Z,20.63
2022-08-17T05:26:25.589Z,20.67
2022-08-17T05:29:02.875Z,20.75
2022-08-17T05:31:30.432Z,20.76
2022-08-17T05:33:59.786Z,20.89
2022-08-17T05:36:43.149Z,20.98
2022-08-17T05:39:16.563Z,21.13
2022-08-17T05:41:45.977Z,21.20
2022-08-17T05:44:12.970Z,21.28
2022-08-17T05:46:42.120Z,21.37
2022-08-17T05:49:08.976Z,21.47
2022-08-17T05:51:53.549Z,21.52
2022-08-17T05:54:42.441Z,21.61
2022-08-17T05:57:31.004Z,21.68
2022-08-17T06:04:06.232Z,21.82
2022-08-17T06:06:46.374Z,21.97
2022-08-17T06:09:39.141Z,22.09
2022-08-17T06:12:33.083Z,22.27
2022-08-17T06:15:23.836Z,22.41
2022-08-17T06:17:59.236Z,22.45
2022-08-17T06:20:30.731Z,22.58
2022-08-17T06:23:04.454Z,22.74
2022-08-17T06:25:43.859Z,22.80
2022-08-17T06:28:14.843Z,22.88
2022-08-17T06:30:59.845Z,22.93
2022-08-17T06:33:34.510Z,23.02
2022-08-17T06:36:34.233Z,23.13
2022-08-17T06:39:23.065Z,23.24
2022-08-17T06:42:01.088Z,23.31
2022-08-17T06:44:43.480Z,23.46
2022-08-17T06:47:41.985Z,23.56
2022-08-17T06:50:20.591Z,23.65
2022-08-17T06:52:55.236Z,23.78
2022-08-17T06:55:47.027Z,23.98
2022-08-17T06:58:16.240Z,24.06
2022-08-17T07:00:46.055Z,24.15
2022-08-17T07:03:26.807Z,24.25
2022-08-17T07:06:06.511Z,24.33
2022-08-17T07:09:01.201Z,24.43
2022-08-17T07:11:41.311Z,24.53
2022-08-17T07:14:29.693Z,24.61
2022-08-17T07:16:58.704Z,24.75
2022-08-17T07:19:34.081Z,24.85
2022-08-17T07:22:57.538Z,24.86
2022-08-17T07:25:27.743Z,25.03
2022-08-17T07:27:59.955Z,25.10
2022-08-17T07:30:45.880Z,25.21
2022-08-17T07:34:16.178Z,25.25
2022-08-17T07:37:36.314Z,25.40
2022-08-17T07:41:53.105Z,25.42
2022-08-17T07:44:55.180Z,25.49
2022-08-17T07:48:39.887Z,25.64
2022-08-17T07:51:14.074Z,25.81
2022-08-17T07:58:03.145Z,25.94
2022-08-17T08:02:11.125Z,26.05
2022-08-17T08:08:35.819Z,26.13
2022-08-17T08:11:35.098Z,26.23
2022-08-17T08:14:47.709Z,26.32
2022-08-17T08:17:58.398Z,26.46
2022-08-17T08:21:17.482Z,26.53
2022-08-17T08:24:48.743Z,26.55
2022-08-17T08:28:17.283Z,26.54
2022-08-17T08:31:14.746Z,26.59
2022-08-17T08:34:53.467Z,26.73
2022-08-17T08:38:09.785Z,26.80
2022-08-17T08:41:31.612Z,26.81
2022-08-17T08:45:56.543Z,26.83
2022-08-17T08:53:23.871Z,27.04
2022-08-17T09:00:40.568Z,27.14
2022-08-17T09:03:52.262Z,27.23
2022-08-17T09:06:40.185Z,27.30
2022-08-17T09:26:28.734Z,27.47
2022-08-17T09:29:50.781Z,27.61
2022-08-17T09:41:27.070Z,27.82
2022-08-17T09:44:46.370Z,28.01
2022-08-17T09:47:43.640Z,28.13
2022-08-17T09:51:03.633Z,28.21
2022-08-17T09:54:39.293Z,28.33
2022-08-17T09:58:23.673Z,28.41
2022-08-17T12:27:01.568Z,31.37
2022-08-17T12:53:35.320Z,32.47
2022-08-17T12:56:24.338Z,32.53
2022-08-17T12:58:54.179Z,32.23
2022-08-17T13:01:21.097Z,31.92
2022-08-17T13:03:52.699Z,31.82
2022-08-17T13:06:32.386Z,31.96
2022-08-17T13:09:11.208Z,32.35
2022-08-17T13:11:47.987Z,32.56
2022-08-17T13:14:18.489Z,32.58
2022-08-17T13:16:53.684Z,32.67
2022-08-17T13:19:39.762Z,32.73
2022-08-17T13:22:21.883Z,32.97
2022-08-17T13:25:14.935Z,33.13
2022-08-17T13:27:42.760Z,33.40
2022-08-17T13:30:12.359Z,33.74
2022-08-17T13:32:43.673Z,33.69
2022-08-17T13:35:41.024Z,33.58
2022-08-17T13:38:33.874Z,33.51
2022-08-17T13:41:00.747Z,33.80
2022-08-17T13:43:38.879Z,33.69
2022-08-17T13:46:12.000Z,33.48
2022-08-17T13:48:39.249Z,33.12
2022-08-17T13:51:13.035Z,33.29
2022-08-17T13:53:46.190Z,33.47
2022-08-17T13:56:39.375Z,33.60
2022-08-17T13:59:53.224Z,33.54
2022-08-17T14:05:29.437Z,33.48
2022-08-17T14:08:08.933Z,33.07
2022-08-17T14:10:36.817Z,32.79
2022-08-17T14:13:18.750Z,32.43
2022-08-17T14:15:54.880Z,32.15
2022-08-17T14:18:50.664Z,32.20
2022-08-17T14:21:12.331Z,32.08
2022-08-17T14:23:39.528Z,31.89
2022-08-17T14:26:09.235Z,31.89
2022-08-17T14:28:38.863Z,32.00
2022-08-17T14:31:21.637Z,32.13
2022-08-17T14:33:52.150Z,32.02
2022-08-17T14:36:19.116Z,31.80
2022-08-17T14:38:46.012Z,31.65
2022-08-17T14:41:13.018Z,31.52
2022-08-17T14:43:40.082Z,31.48
2022-08-17T14:46:06.855Z,31.43
2022-08-17T14:48:38.507Z,31.38
2022-08-17T14:51:05.539Z,31.38
2022-08-17T14:53:32.671Z,31.28
2022-08-17T14:56:01.595Z,31.25
2022-08-17T14:58:29.736Z,31.28
2022-08-17T15:00:57.488Z,31.40
2022-08-17T15:03:24.396Z,31.34
2022-08-17T15:05:51.172Z,31.30
2022-08-17T15:08:18.051Z,31.22
2022-08-17T15:10:44.968Z,31.08
2022-08-17T15:13:21.319Z,31.03
2022-08-17T15:15:48.828Z,30.96
2022-08-17T15:18:16.387Z,30.92
2022-08-17T15:20:44.443Z,30.87
2022-08-17T15:23:15.882Z,30.83
2022-08-17T15:25:43.800Z,30.80
2022-08-17T15:28:10.609Z,30.75
2022-08-17T15:30:37.734Z,30.71
2022-08-17T15:33:04.698Z,30.61
2022-08-17T15:35:32.879Z,30.55
2022-08-17T15:38:11.198Z,30.49
2022-08-17T15:40:43.282Z,30.40
2022-08-17T15:43:16.347Z,30.35
2022-08-17T15:45:43.824Z,30.43
2022-08-17T15:48:11.449Z,30.50
2022-08-17T15:50:38.186Z,30.75
2022-08-17T15:53:05.195Z,30.81
2022-08-17T15:55:32.637Z,30.78
2022-08-17T15:57:59.566Z,30.83
2022-08-17T16:00:28.572Z,30.96
2022-08-17T16:03:15.345Z,31.07
2022-08-17T16:05:43.126Z,31.25
2022-08-17T16:08:11.210Z,31.36
2022-08-17T16:10:38.201Z,31.27
2022-08-17T16:13:04.951Z,31.27
2022-08-17T16:15:32.364Z,31.53
2022-08-17T16:17:59.444Z,31.80
2022-08-17T16:20:26.444Z,32.03
2022-08-17T16:22:54.499Z,32.09
2022-08-17T16:25:38.837Z,32.08
2022-08-17T16:28:15.979Z,32.17
2022-08-17T16:30:42.879Z,32.22
2022-08-17T16:33:11.766Z,32.21
2022-08-17T16:35:40.116Z,32.12
2022-08-17T16:38:07.299Z,32.21
2022-08-17T16:40:36.346Z,32.18
2022-08-17T16:43:04.447Z,32.13
2022-08-17T16:45:36.972Z,32.16
2022-08-17T16:48:06.774Z,32.20
2022-08-17T16:50:33.942Z,31.99
2022-08-17T16:53:06.785Z,31.81
2022-08-17T16:55:35.687Z,31.75
2022-08-17T16:58:04.505Z,31.58
2022-08-17T17:00:33.304Z,31.39
2022-08-17T17:03:29.489Z,31.26
2022-08-17T17:06:06.382Z,31.16
2022-08-17T17:08:42.092Z,30.94
2022-08-17T17:11:33.883Z,30.63
2022-08-17T17:14:02.245Z,30.42
2022-08-17T17:16:29.032Z,30.31
2022-08-17T17:19:35.778Z,30.18
2022-08-17T17:33:34.795Z,29.68
2022-08-17T17:40:51.679Z,29.60
2022-08-17T17:43:40.946Z,29.60
2022-08-17T17:50:00.801Z,29.56
2022-08-17T17:52:45.514Z,29.60
2022-08-17T17:59:44.120Z,29.48
2022-08-17T18:02:51.882Z,29.32
2022-08-17T18:05:43.905Z,29.11
2022-08-17T18:12:09.949Z,28.87
2022-08-17T18:14:44.119Z,28.80
2022-08-17T18:17:10.809Z,28.67
2022-08-17T18:19:40.011Z,28.56
2022-08-17T18:22:14.817Z,28.47
2022-08-17T18:24:44.839Z,28.42
2022-08-17T18:27:52.351Z,28.38
2022-08-17T18:30:39.395Z,28.28
2022-08-17T18:33:23.001Z,28.17
2022-08-17T18:35:59.275Z,28.10
2022-08-17T18:38:34.313Z,28.05
2022-08-17T18:41:04.653Z,27.97
2022-08-17T18:43:52.716Z,27.92
2022-08-17T18:46:35.353Z,27.88
2022-08-17T18:49:26.631Z,27.81
2022-08-17T18:52:22.458Z,27.72
2022-08-17T18:55:01.641Z,27.70
2022-08-17T18:57:35.053Z,27.62
2022-08-17T19:00:15.408Z,27.57
2022-08-17T19:03:02.647Z,27.49
2022-08-17T19:05:43.525Z,27.44
2022-08-17T19:08:29.575Z,27.42
2022-08-17T19:11:12.689Z,27.32
2022-08-17T19:13:53.702Z,27.29
2022-08-17T19:16:30.273Z,27.25
2022-08-17T19:19:20.846Z,27.17
2022-08-17T19:22:45.713Z,27.11
2022-08-17T19:25:52.676Z,27.01
2022-08-17T19:28:48.508Z,26.95
2022-08-17T19:31:23.761Z,26.92
2022-08-17T19:33:57.429Z,26.93
2022-08-17T19:36:47.868Z,26.84
2022-08-17T19:39:43.327Z,26.73
2022-08-17T19:42:20.834Z,26.70
2022-08-17T19:45:26.081Z,26.57
2022-08-17T19:48:17.380Z,26.50
2022-08-17T19:51:08.590Z,26.34
2022-08-17T19:54:07.530Z,26.25
2022-08-17T19:56:49.050Z,26.21
2022-08-17T19:59:35.956Z,26.20
2022-08-17T20:02:39.525Z,26.10
2022-08-17T20:05:15.151Z,26.11
2022-08-17T20:07:57.649Z,26.09
2022-08-17T20:10:54.607Z,26.11
2022-08-17T20:13:53.745Z,25.99
2022-08-17T20:16:38.940Z,25.98
2022-08-17T20:19:32.824Z,25.97
2022-08-17T20:22:53.608Z,25.91
2022-08-17T20:26:01.579Z,25.82
2022-08-17T20:29:18.551Z,25.79
2022-08-17T20:33:32.112Z,25.67
2022-08-17T20:44:12.317Z,25.46
2022-08-17T20:52:43.436Z,25.46
2022-08-17T20:58:30.779Z,25.42
2022-08-17T22:14:51.622Z,24.59
2022-08-17T22:18:35.373Z,24.47
2022-08-17T22:22:23.403Z,24.44
2022-08-17T22:37:16.786Z,24.31
2022-08-17T22:45:25.355Z,24.23
2022-08-17T22:49:13.073Z,24.22
2022-08-17T23:07:20.336Z,24.04
2022-08-17T23:11:15.700Z,24.05
2022-08-17T23:19:38.344Z,23.98
2022-08-17T23:38:31.677Z,23.87
2022-08-17T23:56:11.106Z,23.94
